Time;durP1;ratioP1;P1;durP2;ratioP2;P2;SDS_P1;SDS_P2;PMS_P1;PMS_P2;Temp;Humidity;BMP_temperature;BMP_pressure;BME280_temperature;BME280_humidity;BME280_pressure;Samples;Min_cycle;Max_cycle;Signal;HPM_P1;HPM_P2
2022/04/13 00:00:38;;;;;;;;;58.67;45.00;;;;;4.02;78.42;100065.44;6290023;20;2883647;-61
2022/04/13 00:03:07;;;;;;;;;45.50;38.50;;;;;3.78;78.21;100064.34;6322952;20;2858717;-61
2022/04/13 00:05:36;;;;;;;;;37.50;31.50;;;;;3.62;79.97;100063.03;6290003;20;2865920;-61
2022/04/13 00:08:06;;;;;;;;;46.50;37.50;;;;;3.83;80.22;100064.22;6291151;20;2861706;-61
2022/04/13 00:10:36;;;;;;;;;43.50;32.50;;;;;4.36;78.39;100065.31;6290372;20;2877358;-61
2022/04/13 00:13:06;;;;;;;;;42.33;35.00;;;;;4.32;77.86;100068.13;6288732;20;3610670;-60
2022/04/13 00:15:37;;;;;;;;;67.00;51.33;;;;;4.01;78.36;100062.84;6322752;20;2883169;-61
2022/04/13 00:18:08;;;;;;;;;62.67;48.67;;;;;3.93;80.46;100076.34;6320909;20;2870262;-61
2022/04/13 00:20:38;;;;;;;;;65.67;46.33;;;;;3.90;79.35;100066.66;6319349;20;3638854;-61
2022/04/13 00:23:07;;;;;;;;;60.50;48.00;;;;;3.88;79.63;100072.94;6319624;20;2500871;-61
2022/04/13 00:25:38;;;;;;;;;63.00;47.00;;;;;4.02;79.71;100081.38;6292062;20;2896194;-61
2022/04/13 00:28:09;;;;;;;;;55.00;41.00;;;;;3.72;80.47;100081.31;6319300;20;2494200;-61
2022/04/13 00:30:39;;;;;;;;;72.33;49.33;;;;;3.64;80.88;100075.34;6289337;20;2884835;-61
2022/04/13 00:33:08;;;;;;;;;53.00;43.50;;;;;4.02;78.34;100084.03;6323825;20;2879452;-61
2022/04/13 00:35:38;;;;;;;;;56.33;42.33;;;;;3.71;80.58;100074.28;6291808;20;2864861;-61
2022/04/13 00:38:08;;;;;;;;;71.00;51.67;;;;;3.66;80.40;100076.19;6319852;20;2887885;-61
2022/04/13 00:40:40;;;;;;;;;58.50;46.00;;;;;3.93;79.71;100077.19;6321154;20;2869028;-61
2022/04/13 00:43:09;;;;;;;;;54.00;42.00;;;;;3.10;82.59;100073.19;6289825;20;2868991;-61
2022/04/13 00:45:39;;;;;;;;;58.00;43.33;;;;;3.30;82.36;100078.88;6322108;20;2877605;-61
2022/04/13 00:48:10;;;;;;;;;56.00;43.00;;;;;3.07;83.54;100073.28;6317569;20;2874344;-61
2022/04/13 00:50:39;;;;;;;;;47.00;43.00;;;;;3.44;82.62;100073.22;6287427;20;2851303;-61
2022/04/13 00:53:15;;;;;;;;;55.50;45.00;;;;;3.68;81.00;100079.66;6291037;20;2864873;-61
2022/04/13 00:55:46;;;;;;;;;52.00;39.67;;;;;3.97;79.24;100077.97;6288060;20;2878579;-61
2022/04/13 00:58:17;;;;;;;;;52.50;44.00;;;;;3.76;79.35;100089.19;6317718;20;2859759;-48
2022/04/13 01:00:49;;;;;;;;;59.00;43.50;;;;;3.60;79.44;100078.13;6288670;20;2866990;-49
2022/04/13 01:03:23;;;;;;;;;56.50;47.00;;;;;3.61;79.94;100080.75;6286561;20;2856555;-47
2022/04/13 01:05:54;;;;;;;;;66.00;47.50;;;;;3.79;78.82;100075.84;6282402;20;2877343;-50
2022/04/13 01:08:22;;;;;;;;;62.00;47.50;;;;;3.30;82.27;100070.94;6279208;20;2491047;-49
2022/04/13 01:10:51;;;;;;;;;61.00;48.50;;;;;3.36;82.71;100075.19;6283240;20;2866955;-48
2022/04/13 01:13:20;;;;;;;;;60.50;46.00;;;;;3.15;82.75;100081.06;6281985;20;2884633;-47
2022/04/13 01:15:50;;;;;;;;;58.33;44.00;;;;;3.49;82.33;100081.06;6282810;20;2884995;-48
2022/04/13 01:18:20;;;;;;;;;62.00;46.33;;;;;3.47;81.96;100082.88;6314283;20;2869009;-48
2022/04/13 01:20:53;;;;;;;;;63.50;47.50;;;;;3.44;80.73;100077.66;6315604;20;2854513;-48
2022/04/13 01:23:23;;;;;;;;;60.50;46.50;;;;;2.95;83.50;100076.22;6282044;20;2861718;-48
2022/04/13 01:25:55;;;;;;;;;63.00;47.00;;;;;2.83;84.45;100080.06;6281305;20;2855488;-50
2022/04/13 01:28:24;;;;;;;;;63.00;49.50;;;;;3.06;84.73;100082.16;6284015;20;2852413;-48
2022/04/13 01:30:58;;;;;;;;;58.00;45.50;;;;;2.88;84.00;100082.59;6284155;20;2856630;-47
2022/04/13 01:33:29;;;;;;;;;59.00;47.00;;;;;2.97;84.04;100083.25;6284048;20;2849311;-51
2022/04/13 01:36:02;;;;;;;;;59.67;46.00;;;;;3.50;81.85;100088.09;6283376;20;2871252;-47
2022/04/13 01:38:32;;;;;;;;;60.50;43.50;;;;;3.11;81.26;100084.69;6310258;20;2875406;-51
2022/04/13 01:41:00;;;;;;;;;45.50;40.00;;;;;3.39;80.79;100096.34;6283418;20;2838793;-48
2022/04/13 01:43:28;;;;;;;;;58.00;44.00;;;;;3.45;80.26;100101.53;6278606;20;2496100;-46
2022/04/13 01:45:57;;;;;;;;;54.50;43.50;;;;;3.09;82.10;100098.00;6283255;20;2857663;-47
2022/04/13 01:48:31;;;;;;;;;53.33;43.33;;;;;3.13;82.27;100099.66;6280206;20;2867152;-47
2022/04/13 01:51:00;;;;;;;;;47.50;41.00;;;;;2.86;83.95;100099.41;6312953;20;2856593;-48
2022/04/13 01:53:30;;;;;;;;;59.00;45.50;;;;;2.62;85.06;100107.94;6281937;20;2859686;-47
2022/04/13 01:55:59;;;;;;;;;52.50;43.00;;;;;2.82;84.96;100108.38;6283814;20;2864856;-47
2022/04/13 01:58:28;;;;;;;;;48.00;41.00;;;;;2.80;85.53;100101.34;6282169;20;2858580;-50
2022/04/13 02:00:57;;;;;;;;;57.50;43.00;;;;;2.63;85.25;100109.66;6279012;20;2872193;-50
2022/04/13 02:03:28;;;;;;;;;68.00;53.00;;;;;2.71;85.03;100104.19;6278569;20;2879436;-48
2022/04/13 02:05:56;;;;;;;;;60.00;48.00;;;;;2.76;84.75;100099.66;6310298;20;2840901;-46
2022/04/13 02:08:26;;;;;;;;;59.50;49.50;;;;;2.52;86.12;100109.91;6277652;20;2500264;-62
2022/04/13 02:10:54;;;;;;;;;53.00;45.00;;;;;2.61;85.26;100111.50;6273437;20;2500313;-62
2022/04/13 02:13:23;;;;;;;;;63.00;48.00;;;;;2.59;85.86;100114.19;6276619;20;2875285;-62
2022/04/13 02:15:53;;;;;;;;;57.67;43.00;;;;;2.54;85.15;100116.06;6281881;20;2875283;-62
2022/04/13 02:18:22;;;;;;;;;53.67;42.00;;;;;2.49;85.93;100106.47;6310649;20;2871324;-62
2022/04/13 02:20:51;;;;;;;;;58.00;44.00;;;;;2.62;85.20;100113.25;6312018;20;2883678;-62
2022/04/13 02:23:21;;;;;;;;;42.33;35.67;;;;;2.22;85.90;100113.22;6282307;20;2864867;-62
2022/04/13 02:25:49;;;;;;;;;43.00;40.50;;;;;2.67;84.27;100127.25;6314960;20;2861769;-62
2022/04/13 02:28:18;;;;;;;;;44.50;40.00;;;;;2.61;84.51;100122.97;6283484;20;2868020;-62
2022/04/13 02:30:47;;;;;;;;;34.50;34.00;;;;;2.34;84.54;100129.75;6282391;20;2847174;-62
2022/04/13 02:33:16;;;;;;;;;34.50;31.50;;;;;1.91;86.63;100121.78;6282881;20;2847260;-62
2022/04/13 02:35:45;;;;;;;;;42.00;33.50;;;;;2.28;85.15;100118.38;6282737;20;2859635;-62
2022/04/13 02:38:15;;;;;;;;;45.50;38.00;;;;;2.27;86.55;100132.56;6279831;20;2873182;-62
2022/04/13 02:40:45;;;;;;;;;44.00;36.67;;;;;2.15;87.15;100123.06;6276951;20;2868997;-62
2022/04/13 02:43:14;;;;;;;;;42.00;36.50;;;;;2.28;86.92;100119.25;6312938;20;2861849;-61
2022/04/13 02:45:43;;;;;;;;;32.33;26.67;;;;;2.04;86.55;100131.22;6279962;20;3566053;-62
2022/04/13 02:48:12;;;;;;;;;51.00;40.50;;;;;1.96;87.58;100120.78;6281749;20;2873170;-62
2022/04/13 02:50:41;;;;;;;;;38.50;37.00;;;;;2.14;87.75;100127.50;6278550;20;2852446;-61
2022/04/13 02:53:11;;;;;;;;;51.33;40.00;;;;;2.23;86.18;100131.72;6280028;20;2880546;-62
2022/04/13 02:55:40;;;;;;;;;34.00;33.00;;;;;2.24;86.62;100128.19;6311217;20;2834646;-62
2022/04/13 02:58:08;;;;;;;;;55.00;44.00;;;;;2.04;85.21;100125.06;6281636;20;2866795;-61
2022/04/13 03:00:37;;;;;;;;;49.50;42.00;;;;;1.97;87.65;100124.28;6276664;20;2869027;-62
2022/04/13 03:03:07;;;;;;;;;49.67;41.00;;;;;1.92;87.35;100121.75;6279602;20;2866913;-62
2022/04/13 03:05:37;;;;;;;;;52.33;38.67;;;;;2.27;86.94;100121.97;6313938;20;3639920;-62
2022/04/13 03:08:07;;;;;;;;;48.50;40.50;;;;;1.84;88.13;100126.31;6313495;20;2851317;-62
2022/04/13 03:10:36;;;;;;;;;62.00;49.50;;;;;1.93;87.42;100127.91;6279966;20;2862875;-62
2022/04/13 03:13:04;;;;;;;;;61.00;48.50;;;;;2.53;84.45;100121.41;6283097;20;2862739;-62
2022/04/13 03:15:34;;;;;;;;;48.00;36.33;;;;;2.29;85.45;100126.31;6281151;20;2876396;-62
2022/04/13 03:18:05;;;;;;;;;43.33;37.67;;;;;1.84;86.32;100128.06;6311981;20;2857562;-62
2022/04/13 03:20:35;;;;;;;;;63.00;49.00;;;;;2.09;85.48;100136.44;6307777;20;2864832;-62
2022/04/13 03:23:05;;;;;;;;;60.33;41.00;;;;;2.24;84.59;100130.84;6278960;20;3640905;-62
2022/04/13 03:25:33;;;;;;;;;53.50;42.50;;;;;1.90;86.28;100128.84;6310526;20;2498305;-61
2022/04/13 03:28:02;;;;;;;;;42.00;34.00;;;;;2.67;83.20;100129.06;6280100;20;2860662;-62
2022/04/13 03:30:31;;;;;;;;;38.33;33.33;;;;;2.54;82.50;100125.78;6278614;20;2867153;-62
2022/04/13 03:33:01;;;;;;;;;43.00;35.00;;;;;2.22;84.43;100127.34;6312311;20;2869158;-62
2022/04/13 03:35:30;;;;;;;;;42.50;34.50;;;;;2.14;84.64;100131.94;6310868;20;2856495;-62
2022/04/13 03:38:00;;;;;;;;;46.33;34.67;;;;;2.01;86.12;100133.06;6281479;20;3625339;-62
2022/04/13 03:40:29;;;;;;;;;40.00;33.00;;;;;2.01;85.46;100138.38;6307030;20;2802383;-61
2022/04/13 03:42:58;;;;;;;;;45.67;40.67;;;;;1.87;86.76;100139.50;6310993;20;2864896;-62
2022/04/13 03:45:27;;;;;;;;;52.00;45.00;;;;;1.75;86.04;100142.38;6312301;20;2856558;-62
2022/04/13 03:47:55;;;;;;;;;68.00;53.00;;;;;1.91;84.68;100141.19;6272614;20;2501072;-62
2022/04/13 03:50:24;;;;;;;;;62.50;49.50;;;;;1.93;85.90;100144.69;6276138;20;2863859;-62
2022/04/13 03:52:52;;;;;;;;;56.00;44.00;;;;;1.78;86.20;100147.59;6273071;20;2494124;-62
2022/04/13 03:55:22;;;;;;;;;54.00;43.00;;;;;1.89;85.40;100153.56;6275745;20;2866916;-61
2022/04/13 03:57:52;;;;;;;;;56.67;41.00;;;;;1.84;86.52;100157.19;6274173;20;2872207;-61
2022/04/13 04:00:21;;;;;;;;;45.50;40.00;;;;;1.62;87.38;100152.31;6308225;20;2863797;-61
2022/04/13 04:02:51;;;;;;;;;53.00;43.00;;;;;1.89;86.68;100164.16;6272307;20;2868093;-61
2022/04/13 04:05:21;;;;;;;;;45.67;35.67;;;;;2.56;83.89;100169.03;6281125;20;2872256;-61
2022/04/13 04:07:49;;;;;;;;;39.00;38.00;;;;;2.30;83.58;100169.56;6309436;20;2502424;-57
2022/04/13 04:10:18;;;;;;;;;43.00;39.50;;;;;2.23;84.86;100170.59;6277989;20;2863854;-56
2022/04/13 04:12:47;;;;;;;;;52.00;41.00;;;;;2.17;84.39;100174.25;6280510;20;2864816;-58
2022/04/13 04:15:19;;;;;;;;;48.50;42.00;;;;;2.27;83.67;100170.50;6282064;20;2865941;-57
2022/04/13 04:17:48;;;;;;;;;50.00;41.00;;;;;2.24;84.14;100174.97;6283205;20;2878460;-55
2022/04/13 04:20:15;;;;;;;;;60.00;45.00;;;;;2.38;83.28;100168.50;6276866;20;2499285;-54
2022/04/13 04:22:45;;;;;;;;;60.33;43.00;;;;;2.36;83.14;100180.91;6283167;20;3639864;-55
2022/04/13 04:25:15;;;;;;;;;50.33;38.33;;;;;2.58;83.39;100189.31;6313438;20;2891969;-56
2022/04/13 04:27:42;;;;;;;;;64.00;47.00;;;;;2.53;83.97;100182.38;6310961;20;2499341;-52
2022/04/13 04:30:11;;;;;;;;;56.00;48.00;;;;;2.19;84.95;100183.03;6281902;20;3609683;-57
2022/04/13 04:32:41;;;;;;;;;87.33;66.33;;;;;2.14;85.77;100184.91;6280648;20;3657617;-55
2022/04/13 04:35:11;;;;;;;;;92.33;69.00;;;;;2.08;86.72;100190.28;6312874;20;2893111;-56
2022/04/13 04:37:41;;;;;;;;;70.67;55.33;;;;;2.81;83.56;100188.78;6313412;20;2871146;-54
2022/04/13 04:40:11;;;;;;;;;82.33;61.67;;;;;2.57;84.04;100194.63;6312352;20;3645053;-57
2022/04/13 04:42:49;;;;;;;;;73.00;54.67;;;;;2.52;83.65;100196.50;6320450;20;3640865;-56
2022/04/13 04:45:19;;;;;;;;;89.33;66.33;;;;;2.55;84.10;100193.78;6315776;20;3644002;-57
2022/04/13 04:47:50;;;;;;;;;108.00;84.00;;;;;2.78;84.51;100204.78;6318531;20;3695206;-56
2022/04/13 04:50:23;;;;;;;;;93.33;69.00;;;;;3.95;80.56;100202.03;6285035;20;3634666;-52
2022/04/13 04:52:52;;;;;;;;;97.33;76.00;;;;;7.94;65.45;100220.41;6320281;20;3672081;-57
2022/04/13 04:55:22;;;;;;;;;70.33;52.67;;;;;7.94;61.58;100220.41;6283762;20;2878453;-58
2022/04/13 04:57:51;;;;;;;;;71.67;54.67;;;;;6.32;67.92;100217.81;6318448;20;2881592;-58
2022/04/13 05:00:22;;;;;;;;;71.00;54.50;;;;;7.16;65.67;100224.47;6318246;20;2872189;-57
2022/04/13 05:02:53;;;;;;;;;227.25;182.50;;;;;7.98;61.61;100223.81;6283336;20;4464791;-57
2022/04/13 05:05:23;;;;;;;;;105.00;90.67;;;;;5.62;70.38;100225.50;6321709;20;3684595;-58
2022/04/13 05:07:52;;;;;;;;;62.33;42.00;;;;;5.94;68.45;100217.31;6319508;20;3643966;-57
2022/04/13 05:10:22;;;;;;;;;71.33;52.33;;;;;6.40;67.16;100224.63;6318716;20;3649175;-57
2022/04/13 05:12:56;;;;;;;;;35.00;29.33;;;;;6.54;66.16;100219.69;6317568;20;2852331;-57
2022/04/13 05:15:26;;;;;;;;;25.00;23.00;;;;;6.13;68.12;100222.94;6319965;20;2844043;-57
2022/04/13 05:17:56;;;;;;;;;39.67;27.33;;;;;6.18;68.24;100222.75;6287227;20;2871194;-57
2022/04/13 05:20:25;;;;;;;;;37.33;30.33;;;;;6.21;67.60;100229.75;6316773;20;3610642;-56
2022/04/13 05:22:54;;;;;;;;;28.50;28.50;;;;;6.77;66.70;100225.06;6317205;20;2844041;-55
2022/04/13 05:25:24;;;;;;;;;33.00;31.50;;;;;6.29;66.44;100233.03;6288086;20;2846063;-55
2022/04/13 05:27:53;;;;;;;;;32.00;28.00;;;;;6.01;66.63;100233.13;6285643;20;2847110;-56
2022/04/13 05:30:22;;;;;;;;;36.00;31.50;;;;;6.68;64.80;100236.06;6286660;20;2866941;-55
2022/04/13 05:32:58;;;;;;;;;36.00;28.00;;;;;7.20;64.01;100238.56;6284816;20;2877400;-54
2022/04/13 05:35:31;;;;;;;;;30.00;26.00;;;;;6.33;65.11;100243.53;6285304;20;2846092;-57
2022/04/13 05:38:01;;;;;;;;;28.50;23.50;;;;;7.11;63.79;100234.47;6287288;20;2500499;-57
2022/04/13 05:40:30;;;;;;;;;36.00;28.50;;;;;8.82;58.37;100254.97;6285921;20;2856561;-56
2022/04/13 05:42:58;;;;;;;;;149.50;114.50;;;;;9.07;56.87;100261.88;6282309;20;1962989;-54
2022/04/13 05:45:28;;;;;;;;;126.25;103.50;;;;;7.65;60.68;100259.91;6287610;20;4464762;-57
2022/04/13 05:48:02;;;;;;;;;163.00;129.50;;;;;7.84;60.84;100264.50;6277019;20;1952336;-56
2022/04/13 05:50:30;;;;;;;;;199.00;148.00;;;;;8.66;58.50;100264.63;6275602;20;1958583;-56
2022/04/13 05:53:00;;;;;;;;;59.00;45.00;;;;;8.92;57.30;100269.66;6286299;20;2863814;-56
2022/04/13 05:55:30;;;;;;;;;34.33;26.67;;;;;8.17;61.92;100272.09;6285661;20;2859736;-56
2022/04/13 05:57:59;;;;;;;;;25.00;23.00;;;;;8.70;59.65;100268.91;6318616;20;2842988;-56
2022/04/13 06:00:28;;;;;;;;;31.50;30.00;;;;;8.95;58.76;100269.56;6284623;20;2848160;-54
2022/04/13 06:02:57;;;;;;;;;32.00;31.67;;;;;9.05;58.37;100271.78;6287381;20;2862783;-57
2022/04/13 06:05:27;;;;;;;;;27.00;24.50;;;;;11.89;49.77;100279.53;6317529;20;2846074;-57
2022/04/13 06:07:55;;;;;;;;;24.00;21.00;;;;;10.16;50.11;100281.63;6286576;20;2500268;-57
2022/04/13 06:10:23;;;;;;;;;19.00;18.00;;;;;9.87;51.60;100291.13;6284971;20;2841917;-57
2022/04/13 06:12:51;;;;;;;;;20.00;18.00;;;;;9.66;52.26;100287.66;6285055;20;2491915;-58
2022/04/13 06:15:21;;;;;;;;;37.67;31.67;;;;;11.05;50.39;100295.81;6285816;20;3609620;-58
2022/04/13 06:17:50;;;;;;;;;45.33;39.33;;;;;10.18;51.58;100292.28;6319334;20;2864938;-58
2022/04/13 06:20:19;;;;;;;;;39.67;35.00;;;;;10.81;50.79;100299.81;6317044;20;3591980;-56
2022/04/13 06:22:49;;;;;;;;;38.33;36.00;;;;;10.37;50.74;100292.25;6286807;20;2866994;-57
2022/04/13 06:25:19;;;;;;;;;30.00;28.67;;;;;11.23;48.89;100293.09;6315846;20;3602362;-57
2022/04/13 06:27:48;;;;;;;;;34.00;29.67;;;;;12.08;47.15;100299.06;6319863;20;3597160;-57
2022/04/13 06:30:18;;;;;;;;;30.00;28.00;;;;;14.37;43.12;100300.06;6284505;20;2862804;-58
2022/04/13 06:32:47;;;;;;;;;29.33;24.33;;;;;14.92;41.04;100307.13;6320479;20;3589929;-58
2022/04/13 06:35:17;;;;;;;;;25.50;23.50;;;;;14.92;40.57;100312.53;6285697;20;2846467;-58
2022/04/13 06:37:48;;;;;;;;;26.00;25.00;;;;;13.97;43.09;100308.13;6282917;20;2861248;-58
2022/04/13 06:40:16;;;;;;;;;26.50;20.50;;;;;14.83;41.01;100310.47;6316156;20;2839884;-58
2022/04/13 06:42:45;;;;;;;;;20.50;20.00;;;;;14.17;41.71;100321.19;6283535;20;2836187;-56
2022/04/13 06:45:16;;;;;;;;;19.33;18.00;;;;;15.01;40.00;100324.53;6287890;20;3572152;-58
2022/04/13 06:47:44;;;;;;;;;22.33;20.33;;;;;15.24;38.11;100322.91;6319153;20;3564861;-58
2022/04/13 06:50:13;;;;;;;;;22.00;19.50;;;;;14.49;39.52;100320.84;6313822;20;2827326;-59
2022/04/13 06:52:42;;;;;;;;;18.00;17.00;;;;;17.15;35.82;100326.75;6283337;20;2835782;-59
2022/04/13 06:55:12;;;;;;;;;27.00;25.67;;;;;18.18;33.42;100335.63;6287653;20;3590870;-59
2022/04/13 06:57:41;;;;;;;;;30.00;23.00;;;;;17.75;33.03;100330.97;6317990;20;3502356;-59
2022/04/13 07:00:13;;;;;;;;;24.33;24.00;;;;;13.50;41.26;100321.03;6320230;20;2842992;-59
2022/04/13 07:02:42;;;;;;;;;27.33;26.00;;;;;12.96;44.13;100318.97;6313393;20;3598299;-58
2022/04/13 07:05:32;;;;;;;;;25.00;21.00;;;;;12.31;44.47;100313.00;6284859;20;2846130;-57
2022/04/13 07:08:02;;;;;;;;;22.33;22.00;;;;;12.06;46.13;100319.81;6290285;20;3580480;-56
2022/04/13 07:10:33;;;;;;;;;27.00;26.00;;;;;11.71;44.63;100319.09;6284665;20;3604412;-57
2022/04/13 07:13:11;;;;;;;;;28.33;28.00;;;;;12.16;45.83;100324.66;6284705;20;2858678;-58
2022/04/13 07:15:40;;;;;;;;;26.00;24.33;;;;;12.30;45.05;100322.06;6317916;20;3585786;-57
2022/04/13 07:18:10;;;;;;;;;30.67;25.33;;;;;12.16;44.73;100324.66;6283010;20;3591912;-57
2022/04/13 07:20:39;;;;;;;;;24.33;24.33;;;;;12.81;42.24;100335.19;6315771;20;3582547;-57
2022/04/13 07:23:07;;;;;;;;;30.33;27.00;;;;;14.77;38.76;100330.69;6283655;20;3602343;-56
2022/04/13 07:25:37;;;;;;;;;26.67;25.00;;;;;15.60;37.96;100338.38;6285842;20;2857631;-58
2022/04/13 07:28:06;;;;;;;;;26.33;24.33;;;;;16.11;36.72;100343.69;6317381;20;3586671;-57
2022/04/13 07:30:35;;;;;;;;;27.00;23.33;;;;;13.74;41.05;100333.91;6285634;20;3594058;-57
2022/04/13 07:33:04;;;;;;;;;17.50;16.50;;;;;11.60;45.85;100324.22;6283629;20;2829412;-56
2022/04/13 07:35:33;;;;;;;;;35.33;29.67;;;;;12.43;43.80;100330.28;6289963;20;3614845;-56
2022/04/13 07:38:02;;;;;;;;;27.00;24.67;;;;;12.39;43.44;100336.78;6284328;20;2854553;-56
2022/04/13 07:40:32;;;;;;;;;27.00;26.00;;;;;12.75;44.57;100339.13;6312997;20;2853467;-58
2022/04/13 07:43:02;;;;;;;;;29.33;24.67;;;;;13.14;44.22;100341.22;6314633;20;3610699;-57
2022/04/13 07:45:32;;;;;;;;;28.33;27.00;;;;;13.33;43.71;100340.13;6318267;20;3594030;-57
2022/04/13 07:48:01;;;;;;;;;26.67;26.00;;;;;13.17;44.00;100346.44;6282744;20;2856526;-57
2022/04/13 07:50:30;;;;;;;;;29.00;26.50;;;;;13.31;44.12;100342.91;6312828;20;2851377;-57
2022/04/13 07:52:59;;;;;;;;;26.33;24.00;;;;;12.79;42.61;100351.44;6285776;20;3576505;-56
2022/04/13 07:55:28;;;;;;;;;23.00;21.00;;;;;12.90;44.49;100343.59;6281355;20;2836698;-57
2022/04/13 07:57:57;;;;;;;;;26.00;26.00;;;;;13.56;43.31;100346.75;6285472;20;2850337;-55
2022/04/13 08:00:27;;;;;;;;;26.00;25.33;;;;;14.25;41.77;100340.44;6280935;20;2837846;-57
2022/04/13 08:02:55;;;;;;;;;26.33;21.67;;;;;13.96;41.11;100338.81;6317992;20;3580470;-57
2022/04/13 08:05:25;;;;;;;;;23.00;22.00;;;;;13.60;41.30;100342.91;6282751;20;2841910;-57
2022/04/13 08:07:54;;;;;;;;;18.00;13.67;;;;;14.19;40.92;100343.56;6285101;20;3556067;-57
2022/04/13 08:10:23;;;;;;;;;21.00;20.50;;;;;14.24;39.84;100344.13;6283103;20;2827369;-58
2022/04/13 08:12:52;;;;;;;;;22.00;22.00;;;;;14.45;39.34;100340.94;6283764;20;2846111;-57
2022/04/13 08:15:20;;;;;;;;;27.50;22.00;;;;;14.28;38.91;100348.34;6287888;20;2851311;-57
2022/04/13 08:17:49;;;;;;;;;23.00;22.00;;;;;15.13;39.42;100348.88;6291425;20;3582605;-58
2022/04/13 08:20:19;;;;;;;;;28.00;24.00;;;;;14.47;39.39;100345.28;6284972;20;3600205;-57
2022/04/13 08:22:48;;;;;;;;;23.33;23.33;;;;;14.71;40.36;100342.78;6321218;20;3582524;-57
2022/04/13 08:25:16;;;;;;;;;24.00;24.00;;;;;14.99;38.83;100345.44;6288905;20;2693090;-57
2022/04/13 08:27:45;;;;;;;;;24.00;22.00;;;;;15.78;37.79;100344.34;6290854;20;2837791;-57
2022/04/13 08:30:14;;;;;;;;;23.33;22.00;;;;;15.47;37.94;100348.34;6288479;20;2840876;-57
2022/04/13 08:32:43;;;;;;;;;24.00;19.00;;;;;14.81;37.82;100342.16;6321242;20;3577426;-57
2022/04/13 08:35:12;;;;;;;;;21.00;19.00;;;;;14.40;39.59;100348.47;6320154;20;2836868;-58
2022/04/13 08:37:42;;;;;;;;;26.00;23.00;;;;;15.75;38.35;100349.97;6287999;20;2851432;-58
2022/04/13 08:40:12;;;;;;;;;22.50;19.50;;;;;15.62;37.18;100346.41;6317242;20;2831556;-57
2022/04/13 08:42:50;;;;;;;;;24.50;22.00;;;;;15.09;37.88;100341.97;6283432;20;2491952;-57
2022/04/13 08:45:30;;;;;;;;;22.50;18.50;;;;;14.77;37.86;100341.50;6286875;20;2827331;-58
2022/04/13 08:48:00;;;;;;;;;21.50;21.00;;;;;14.65;38.28;100347.75;6288598;20;2848155;-58
2022/04/13 08:50:31;;;;;;;;;19.00;17.50;;;;;14.98;38.28;100344.56;6285615;20;2832527;-58
2022/04/13 08:53:02;;;;;;;;;20.33;20.33;;;;;14.07;39.48;100344.34;6291103;20;3576800;-58
2022/04/13 08:55:33;;;;;;;;;24.00;22.00;;;;;14.95;38.14;100338.50;6285904;20;2842984;-57
2022/04/13 08:58:55;;;;;;;;;26.50;23.50;;;;;15.76;37.71;100335.47;6286872;20;2855549;-57
2022/04/13 09:02:12;;;;;;;;;20.33;20.00;;;;;16.13;36.70;100338.16;6289280;20;3557571;-58
2022/04/13 09:04:43;;;;;;;;;17.67;17.33;;;;;16.06;35.49;100342.31;6317767;20;3559626;-57
2022/04/13 09:07:13;;;;;;;;;13.50;12.50;;;;;15.25;36.83;100332.78;6315801;20;2494054;-57
2022/04/13 09:09:47;;;;;;;;;23.00;20.00;;;;;15.65;37.33;100340.75;6286544;20;2836130;-58
2022/04/13 09:12:19;;;;;;;;;17.67;16.00;;;;;16.25;36.32;100337.25;6284896;20;3562701;-58
2022/04/13 09:14:48;;;;;;;;;16.00;16.00;;;;;16.12;34.63;100331.88;6288247;20;2822172;-58
2022/04/13 09:17:17;;;;;;;;;21.00;16.00;;;;;16.08;34.59;100335.78;6287031;20;2483600;-58
2022/04/13 09:19:47;;;;;;;;;17.50;16.50;;;;;16.07;33.86;100338.63;6282356;20;2483644;-57
2022/04/13 09:22:18;;;;;;;;;24.00;17.00;;;;;15.34;34.73;100324.88;6286783;20;2847170;-57
2022/04/13 09:24:48;;;;;;;;;14.67;14.67;;;;;16.05;34.34;100327.03;6284468;20;3533567;-58
2022/04/13 09:27:21;;;;;;;;;14.67;14.67;;;;;16.35;33.95;100326.56;6315687;20;3539813;-58
2022/04/13 09:29:50;;;;;;;;;17.33;15.67;;;;;15.80;35.13;100326.16;6284151;20;3551374;-58
2022/04/13 09:32:19;;;;;;;;;19.00;19.00;;;;;16.38;34.70;100327.22;6286015;20;2842030;-57
2022/04/13 09:34:48;;;;;;;;;19.00;18.00;;;;;16.60;34.51;100320.16;6285398;20;3581545;-58
2022/04/13 09:37:19;;;;;;;;;16.00;15.67;;;;;16.40;33.01;100319.84;6286732;20;3549269;-57
2022/04/13 09:39:48;;;;;;;;;16.67;15.00;;;;;16.14;33.27;100323.63;6284658;20;3544100;-56
2022/04/13 09:42:17;;;;;;;;;11.00;9.33;;;;;15.67;32.28;100317.16;6287244;20;2783710;-58
2022/04/13 09:44:56;;;;;;;;;19.00;19.00;;;;;16.37;32.85;100320.06;6316883;20;2821117;-57
2022/04/13 09:47:33;;;;;;;;;14.00;14.00;;;;;16.24;35.36;100319.25;6287432;20;2491921;-57
2022/04/13 09:50:02;;;;;;;;;15.00;15.00;;;;;15.52;35.09;100306.44;6285306;20;3542961;-55
2022/04/13 09:52:43;;;;;;;;;12.00;12.00;;;;;15.77;34.77;100304.69;6288256;20;3524178;-57
2022/04/13 09:55:12;;;;;;;;;19.67;18.33;;;;;15.61;35.85;100307.63;6318857;20;2840977;-57
2022/04/13 09:57:41;;;;;;;;;16.00;14.33;;;;;15.74;35.73;100304.91;6315488;20;3539842;-57
2022/04/13 10:00:12;;;;;;;;;23.33;21.33;;;;;16.82;35.65;100320.25;6287100;20;3587748;-57
2022/04/13 10:02:44;;;;;;;;;15.33;14.67;;;;;17.32;35.93;100315.44;6283134;20;3537743;-57
2022/04/13 10:05:16;;;;;;;;;15.00;15.00;;;;;17.17;34.16;100303.09;6285507;20;2816986;-56
2022/04/13 10:07:45;;;;;;;;;23.33;22.67;;;;;17.36;33.58;100307.06;6290026;20;3591947;-56
2022/04/13 10:10:24;;;;;;;;;15.33;14.00;;;;;17.16;33.75;100306.78;6284247;20;3534666;-58
2022/04/13 10:12:55;;;;;;;;;16.00;15.50;;;;;17.44;34.08;100304.59;6283784;20;2494009;-57
2022/04/13 10:15:24;;;;;;;;;18.00;16.00;;;;;17.11;32.24;100293.59;6287166;20;2822172;-57
2022/04/13 10:17:59;;;;;;;;;15.00;14.00;;;;;16.59;33.63;100285.91;6286311;20;2485811;-57
2022/04/13 10:20:46;;;;;;;;;15.00;15.00;;;;;17.88;34.83;100287.41;6285194;20;3517271;-57
2022/04/13 10:23:16;;;;;;;;;13.00;13.00;;;;;17.00;33.25;100281.84;6316530;20;3523233;-57
2022/04/13 10:25:44;;;;;;;;;15.00;15.00;;;;;17.38;33.36;100284.22;6284136;20;2813779;-57
2022/04/13 10:28:22;;;;;;;;;18.50;17.00;;;;;17.47;34.21;100278.03;6286523;20;2491974;-56
2022/04/13 10:30:50;;;;;;;;;17.50;16.50;;;;;17.62;32.99;100285.94;6287790;20;2829418;-56
2022/04/13 10:33:19;;;;;;;;;16.50;15.50;;;;;17.58;33.59;100276.31;6285598;20;2832662;-58
2022/04/13 10:35:49;;;;;;;;;17.00;16.00;;;;;16.68;33.01;100268.94;6286383;20;2835671;-56
2022/04/13 10:38:17;;;;;;;;;15.33;14.00;;;;;17.31;32.22;100267.56;6287429;20;3542929;-56
2022/04/13 10:40:48;;;;;;;;;21.00;17.00;;;;;17.73;32.85;100272.34;6285217;20;3441879;-57
2022/04/13 10:43:16;;;;;;;;;18.00;16.00;;;;;18.07;32.59;100273.16;6312684;20;2483672;-56
2022/04/13 10:45:47;;;;;;;;;18.00;15.00;;;;;17.88;33.60;100275.69;6281831;20;2500280;-57
2022/04/13 10:48:22;;;;;;;;;17.00;15.00;;;;;18.31;32.48;100267.50;6284641;20;2487868;-57
2022/04/13 10:51:09;;;;;;;;;18.50;18.50;;;;;17.77;33.21;100271.09;6283232;20;2834753;-57
2022/04/13 10:53:53;;;;;;;;;19.67;17.67;;;;;17.41;33.01;100266.84;6286949;20;3572130;-55
2022/04/13 10:56:31;;;;;;;;;20.00;16.00;;;;;18.10;33.14;100269.31;6314501;20;2835719;-57
2022/04/13 10:59:09;;;;;;;;;17.00;16.50;;;;;18.17;32.56;100263.25;6285456;20;2837762;-57
2022/04/13 11:02:19;;;;;;;;;16.00;16.00;;;;;17.84;31.86;100269.63;6287595;20;3560629;-56
2022/04/13 11:04:49;;;;;;;;;19.00;17.00;;;;;17.69;32.60;100266.31;6287005;20;3558574;-51
2022/04/13 11:07:19;;;;;;;;;20.33;20.33;;;;;18.05;32.77;100260.69;6314389;20;3575246;-56
2022/04/13 11:09:57;;;;;;;;;19.33;18.67;;;;;17.43;32.38;100251.25;6284902;20;3569017;-55
2022/04/13 11:12:27;;;;;;;;;19.00;18.00;;;;;17.32;33.22;100253.03;6281002;20;2835847;-55